This is the latest recevied weather packets stored in our database for station/object G6LTT-13. If no packets are shown the sender has not sent any weather packets the latest 10 day(s).
| Time | Temp. | Humidity | Pressure | Rain* | Wind** | Luminosity | Snow |
|---|---|---|---|---|---|---|---|
| 1777941280 | 11.67° C | 87% | 1042.6 hPa | 0 mm | - | - | - |
| 1777939480 | 11.67° C | 82% | 1042.8 hPa | 0 mm | - | - | - |
| 1777937680 | 11.67° C | 82% | 1043.2 hPa | 0 mm | - | - | - |
| 1777935880 | 11.67° C | 82% | 1043.2 hPa | 0 mm | - | - | - |
| 1777934080 | 11.67° C | 81% | 1043.2 hPa | 0 mm | - | - | - |
| 1777932280 | 12.22° C | 81% | 1043.3 hPa | 0 mm | - | - | - |
| 1777930480 | 12.22° C | 80% | 1043.4 hPa | 0 mm | - | - | - |
| 1777928680 | 12.22° C | 80% | 1043.4 hPa | 0 mm | - | - | - |
| 1777926880 | 12.78° C | 79% | 1043 hPa | 0 mm | - | - | - |
| 1777925080 | 13.33° C | 79% | 1043.1 hPa | 0 mm | - | - | - |
| 1777923280 | 13.33° C | 79% | 1042.8 hPa | 0 mm | - | - | - |
| 1777921480 | 13.89° C | 77% | 1042.8 hPa | 0 mm | - | - | - |
| 1777919680 | 13.89° C | 76% | 1042.8 hPa | 0 mm | - | - | - |
| 1777917880 | 14.44° C | 73% | 1042.3 hPa | 0 mm | - | - | - |
| 1777916080 | 14.44° C | 74% | 1042.5 hPa | 0 mm | - | - | - |
| 1777914280 | 15° C | 73% | 1042.7 hPa | 0 mm | - | - | - |
| 1777912480 | 14.44° C | 74% | 1042.9 hPa | 0 mm | - | - | - |
| 1777910680 | 13.33° C | 78% | 1043.1 hPa | 0 mm | - | - | - |
| 1777908880 | 13.33° C | 78% | 1042.9 hPa | 0 mm | - | - | - |
| 1777907080 | 13.89° C | 77% | 1042.9 hPa | 0 mm | - | - | - |
| 1777905280 | 14.44° C | 75% | 1042.8 hPa | 0 mm | - | - | - |
| 1777903480 | 15° C | 75% | 1042.9 hPa | 0 mm | - | - | - |
| 1777901680 | 15° C | 75% | 1042.9 hPa | 0 mm | - | - | - |
| 1777899880 | 15.56° C | 72% | 1042.7 hPa | 0 mm | - | - | - |
| 1777898080 | 15.56° C | 70% | 1042.6 hPa | 0 mm | - | - | - |
* Rain latest hour (hover to see other rain measurements)
** Current wind speed in m/s (hover to see current wind gust speed)